Time;durP1;ratioP1;P1;durP2;ratioP2;P2;SDS_P1;SDS_P2;PMS_P1;PMS_P2;Temp;Humidity;BMP_temperature;BMP_pressure;BME280_temperature;BME280_humidity;BME280_pressure;Samples;Min_cycle;Max_cycle;Signal;HPM_P1;HPM_P2
2022/04/26 03:37:12;;;;;;;6.05;3.55;;;4.70;99.90;;;;;;5052624;28;20043;-57
2022/04/26 03:39:39;;;;;;;9.40;4.18;;;4.70;99.90;;;;;;5052425;28;20111;-58
2022/04/26 03:42:06;;;;;;;5.57;3.43;;;4.70;99.90;;;;;;5052363;28;20094;-58
2022/04/26 03:44:31;;;;;;;8.13;4.00;;;4.60;99.90;;;;;;5052293;28;20512;-58
2022/04/26 03:46:57;;;;;;;8.25;4.03;;;4.60;99.90;;;;;;5052376;28;20039;-62
2022/04/26 03:49:23;;;;;;;8.45;3.83;;;4.70;99.90;;;;;;5052843;28;20104;-62
2022/04/26 03:51:52;;;;;;;12.88;4.35;;;4.60;99.90;;;;;;5052270;28;20047;-62
2022/04/26 03:54:18;;;;;;;7.80;3.97;;;4.50;99.90;;;;;;5052480;28;20500;-62
2022/04/26 03:56:44;;;;;;;9.93;4.88;;;4.60;99.90;;;;;;5052406;28;20032;-62
2022/04/26 03:59:09;;;;;;;6.95;4.25;;;4.60;99.90;;;;;;5052117;28;20049;-62
2022/04/26 04:01:35;;;;;;;7.85;5.13;;;4.60;99.90;;;;;;5052147;28;20390;-62
2022/04/26 04:04:01;;;;;;;10.88;4.70;;;4.60;99.90;;;;;;5052355;28;20033;-62
2022/04/26 04:06:26;;;;;;;9.60;4.03;;;4.60;99.90;;;;;;5052410;28;20033;-58
2022/04/26 04:08:52;;;;;;;7.88;4.30;;;4.60;99.90;;;;;;5052061;28;20067;-59
2022/04/26 04:11:17;;;;;;;9.60;4.10;;;4.70;99.90;;;;;;5052144;28;20037;-58
2022/04/26 04:13:43;;;;;;;9.40;4.30;;;4.60;99.90;;;;;;5055801;28;20037;-62
2022/04/26 04:16:09;;;;;;;10.85;4.30;;;4.70;99.90;;;;;;5056148;28;20037;-58
2022/04/26 04:21:19;;;;;;;9.50;4.30;;;4.60;99.90;;;;;;5055952;28;20561;-58
2022/04/26 04:23:45;;;;;;;6.22;3.55;;;4.60;99.90;;;;;;5056248;28;20374;-58
2022/04/26 04:26:10;;;;;;;6.88;3.67;;;4.60;99.90;;;;;;5055909;28;20029;-58
2022/04/26 04:28:36;;;;;;;9.50;4.00;;;4.60;99.90;;;;;;5055748;28;20079;-62
2022/04/26 04:31:03;;;;;;;12.25;4.32;;;4.70;99.90;;;;;;5055691;28;20110;-58
2022/04/26 04:33:28;;;;;;;9.98;4.45;;;4.60;99.90;;;;;;5055669;28;20057;-58
2022/04/26 04:35:54;;;;;;;12.73;3.95;;;4.50;99.90;;;;;;5055651;28;20067;-58
2022/04/26 04:38:20;;;;;;;7.03;3.97;;;4.50;99.90;;;;;;5055549;28;20094;-59
2022/04/26 04:40:45;;;;;;;8.93;4.20;;;4.60;99.90;;;;;;5055603;28;20440;-58
2022/04/26 04:43:11;;;;;;;10.57;3.88;;;4.70;99.90;;;;;;5055478;28;20064;-58
2022/04/26 04:45:38;;;;;;;9.68;4.25;;;4.80;99.90;;;;;;5055404;28;20035;-58
2022/04/26 04:48:05;;;;;;;12.50;4.28;;;4.70;99.90;;;;;;5055330;28;20022;-59
2022/04/26 04:50:32;;;;;;;15.35;4.32;;;4.70;99.90;;;;;;5055311;28;20025;-59
2022/04/26 04:52:58;;;;;;;8.80;4.75;;;4.70;99.90;;;;;;5037646;28;20547;-60
2022/04/26 04:55:23;;;;;;;13.88;4.60;;;4.70;99.90;;;;;;5055464;28;20056;-61
2022/04/26 04:57:49;;;;;;;7.90;5.25;;;4.90;99.90;;;;;;5054892;28;20061;-61
2022/04/26 05:00:15;;;;;;;10.18;5.00;;;4.90;99.90;;;;;;5055085;28;20041;-61
2022/04/26 05:02:40;;;;;;;11.45;4.88;;;5.00;99.90;;;;;;5055112;28;20385;-59
2022/04/26 05:05:06;;;;;;;8.68;4.40;;;5.10;99.90;;;;;;5055077;28;20051;-58
2022/04/26 05:07:32;;;;;;;9.30;5.00;;;5.10;99.90;;;;;;5054939;28;20033;-58
2022/04/26 05:09:58;;;;;;;17.15;5.30;;;5.20;99.90;;;;;;5055025;28;20037;-61
2022/04/26 05:12:23;;;;;;;7.85;4.25;;;5.20;99.90;;;;;;5055065;28;20115;-59
2022/04/26 05:14:49;;;;;;;9.10;4.20;;;5.20;99.90;;;;;;5054964;28;20543;-61
2022/04/26 05:17:15;;;;;;;14.77;4.93;;;5.10;99.90;;;;;;5054854;28;20044;-59
2022/04/26 05:19:40;;;;;;;9.75;4.68;;;5.10;99.90;;;;;;5054680;28;20037;-57
2022/04/26 05:22:09;;;;;;;8.30;4.57;;;5.10;99.90;;;;;;5054842;28;20041;-58
2022/04/26 05:24:54;;;;;;;10.07;4.40;;;5.10;99.90;;;;;;5054631;28;20033;-58
2022/04/26 05:27:25;;;;;;;8.80;4.15;;;5.10;99.90;;;;;;5067162;28;20385;-59
2022/04/26 05:29:51;;;;;;;11.57;4.97;;;5.10;99.90;;;;;;5073930;28;20033;-59
2022/04/26 05:32:25;;;;;;;5.93;3.97;;;5.10;99.90;;;;;;5073435;28;20044;-58
2022/04/26 05:34:58;;;;;;;10.73;5.18;;;5.20;99.90;;;;;;5073881;28;20111;-61
2022/04/26 05:37:25;;;;;;;11.10;4.80;;;5.30;99.90;;;;;;5056533;28;20032;-61
2022/04/26 05:39:51;;;;;;;11.90;4.78;;;5.30;99.90;;;;;;5074301;28;20094;-61
2022/04/26 05:42:16;;;;;;;10.82;4.22;;;5.40;99.90;;;;;;5074365;28;20029;-62
2022/04/26 05:44:42;;;;;;;13.05;4.88;;;5.50;99.90;;;;;;5074333;28;20025;-59
2022/04/26 05:47:11;;;;;;;10.20;4.00;;;5.60;99.90;;;;;;5074211;28;20035;-59
2022/04/26 05:49:37;;;;;;;8.90;3.92;;;5.60;99.90;;;;;;5074092;28;20036;-61
2022/04/26 05:52:03;;;;;;;13.75;4.43;;;5.70;99.90;;;;;;5074042;28;20472;-62
2022/04/26 05:54:30;;;;;;;6.30;3.90;;;5.70;99.90;;;;;;5074068;28;20044;-62
2022/04/26 05:56:56;;;;;;;10.15;4.40;;;5.80;99.90;;;;;;5074147;28;20069;-62
2022/04/26 05:59:22;;;;;;;8.13;4.60;;;5.80;99.90;;;;;;5073707;28;20072;-59
2022/04/26 06:01:49;;;;;;;12.00;4.75;;;5.80;99.90;;;;;;5074388;28;20440;-58
2022/04/26 06:04:15;;;;;;;9.40;3.70;;;5.90;99.90;;;;;;5073995;28;20025;-58
2022/04/26 06:06:41;;;;;;;8.55;4.70;;;6.00;99.90;;;;;;5073959;28;20035;-62
2022/04/26 06:09:07;;;;;;;7.78;5.20;;;6.00;99.90;;;;;;5073621;28;20041;-62
2022/04/26 06:11:33;;;;;;;10.82;5.57;;;6.10;99.90;;;;;;5073782;28;20098;-62
2022/04/26 06:14:00;;;;;;;7.68;4.10;;;6.20;99.90;;;;;;5073935;28;20504;-62
2022/04/26 06:16:26;;;;;;;13.75;4.60;;;6.30;99.90;;;;;;5073764;28;20123;-62
2022/04/26 06:18:51;;;;;;;11.82;4.75;;;6.40;99.90;;;;;;5073645;28;20170;-62
2022/04/26 06:21:17;;;;;;;9.63;4.15;;;6.50;99.90;;;;;;5065707;28;20037;-62
2022/04/26 06:23:43;;;;;;;12.55;4.38;;;6.60;99.90;;;;;;5067361;28;20036;-59
2022/04/26 06:26:09;;;;;;;11.73;4.70;;;6.60;99.90;;;;;;5073516;28;20036;-59
2022/04/26 06:28:34;;;;;;;11.93;5.07;;;6.70;99.90;;;;;;5073823;28;20040;-59
2022/04/26 06:31:00;;;;;;;13.55;5.80;;;6.80;99.90;;;;;;5071264;28;20107;-61
2022/04/26 06:33:26;;;;;;;14.85;4.20;;;6.90;99.90;;;;;;5073931;28;20048;-63
2022/04/26 06:35:52;;;;;;;9.10;4.25;;;7.00;99.90;;;;;;5073525;28;20488;-62
2022/04/26 06:38:18;;;;;;;10.95;4.90;;;7.10;99.90;;;;;;5073828;28;20090;-59
2022/04/26 06:40:46;;;;;;;10.13;4.50;;;7.20;99.90;;;;;;5072673;28;20585;-63
2022/04/26 06:43:12;;;;;;;6.25;4.20;;;7.40;99.90;;;;;;5072873;28;20048;-61
2022/04/26 06:45:38;;;;;;;12.38;4.75;;;7.50;99.90;;;;;;5072089;28;20460;-62
2022/04/26 06:48:10;;;;;;;9.20;3.95;;;7.70;99.90;;;;;;5073481;28;20119;-60
2022/04/26 06:50:37;;;;;;;7.15;4.25;;;7.80;99.90;;;;;;5073591;28;20037;-60
2022/04/26 06:53:04;;;;;;;8.23;3.30;;;8.00;99.90;;;;;;5073191;28;20035;-62
2022/04/26 06:55:29;;;;;;;9.20;4.55;;;8.10;99.90;;;;;;5068882;28;20047;-60
2022/04/26 06:57:55;;;;;;;7.53;4.20;;;8.20;99.90;;;;;;5073473;28;20408;-61
2022/04/26 07:00:21;;;;;;;9.40;3.75;;;8.30;99.90;;;;;;5073135;28;20033;-59
2022/04/26 07:02:47;;;;;;;8.88;3.47;;;8.50;99.90;;;;;;5073045;28;20048;-59
2022/04/26 07:05:14;;;;;;;7.97;3.63;;;8.60;99.90;;;;;;5056798;28;20533;-59
2022/04/26 07:07:40;;;;;;;7.72;3.88;;;8.70;99.90;;;;;;5063749;28;20037;-59
2022/04/26 07:10:07;;;;;;;8.45;3.47;;;8.80;99.90;;;;;;5072586;28;20037;-59
2022/04/26 07:12:33;;;;;;;4.47;2.72;;;8.90;99.90;;;;;;5072785;28;20519;-60
2022/04/26 07:14:59;;;;;;;7.15;3.58;;;9.00;99.90;;;;;;5058006;28;20168;-61
2022/04/26 07:17:25;;;;;;;6.13;2.92;;;9.10;99.90;;;;;;5052786;28;20524;-61
2022/04/26 07:19:52;;;;;;;6.82;2.88;;;9.20;99.90;;;;;;5052732;28;20580;-62
2022/04/26 07:22:17;;;;;;;4.05;2.67;;;9.30;99.90;;;;;;5059674;28;20032;-61
2022/04/26 07:24:44;;;;;;;3.45;2.25;;;9.40;99.90;;;;;;5068104;28;20029;-60
2022/04/26 07:27:13;;;;;;;7.53;3.00;;;9.50;99.90;;;;;;5072823;28;20481;-61
2022/04/26 07:29:41;;;;;;;3.50;1.77;;;9.70;99.90;;;;;;5054390;28;20135;-62
2022/04/26 07:32:07;;;;;;;;;;;9.90;99.90;;;;;;5072928;28;20036;-61
2022/04/26 07:34:32;;;;;;;3.95;2.00;;;10.00;99.90;;;;;;5067586;28;19905;-61
2022/04/26 07:37:04;;;;;;;5.20;2.00;;;10.10;99.90;;;;;;5071791;28;20093;-62
2022/04/26 07:39:33;;;;;;;3.13;1.40;;;10.10;99.90;;;;;;5072356;28;20400;-62
2022/04/26 07:41:59;;;;;;;3.20;1.80;;;10.20;99.90;;;;;;5072473;28;20099;-61
2022/04/26 07:44:25;;;;;;;7.00;2.00;;;10.20;99.90;;;;;;5063013;28;20037;-61
2022/04/26 07:46:53;;;;;;;3.10;2.50;;;10.40;99.90;;;;;;5054261;28;20032;-64
2022/04/26 07:49:20;;;;;;;5.55;1.85;;;10.40;99.90;;;;;;5075827;28;20538;-68
2022/04/26 07:51:47;;;;;;;2.90;1.90;;;10.50;99.90;;;;;;5076340;28;20032;-63
2022/04/26 07:54:12;;;;;;;2.30;1.45;;;10.60;99.20;;;;;;5051164;28;20033;-64
2022/04/26 07:56:39;;;;;;;3.75;1.98;;;10.70;99.20;;;;;;5076266;28;20048;-67
2022/04/26 07:59:05;;;;;;;2.63;1.00;;;10.80;98.50;;;;;;5073619;28;20511;-69
2022/04/26 08:01:31;;;;;;;2.22;1.00;;;10.90;99.10;;;;;;5062683;28;20453;-66
2022/04/26 08:03:58;;;;;;;4.65;1.95;;;11.10;98.60;;;;;;5075975;28;20033;-63
2022/04/26 08:06:24;;;;;;;4.72;1.48;;;11.20;96.90;;;;;;5060870;28;20485;-69
2022/04/26 08:08:50;;;;;;;2.55;1.25;;;11.20;97.00;;;;;;5068206;28;20058;-66
2022/04/26 08:11:15;;;;;;;2.17;1.23;;;11.30;95.00;;;;;;5075731;28;20161;-66
2022/04/26 08:13:42;;;;;;;3.95;1.33;;;11.40;95.80;;;;;;5074729;28;20369;-67
2022/04/26 08:16:08;;;;;;;2.70;1.10;;;11.50;96.00;;;;;;5074840;28;20048;-66
2022/04/26 08:18:34;;;;;;;1.02;0.80;;;11.60;95.50;;;;;;5075316;28;20033;-67
2022/04/26 08:21:00;;;;;;;4.53;1.23;;;11.60;94.10;;;;;;5075482;28;20033;-67
2022/04/26 08:23:26;;;;;;;1.35;0.95;;;11.80;95.50;;;;;;5075315;28;20037;-65
2022/04/26 08:28:36;;;;;;;2.70;1.08;;;11.90;93.30;;;;;;5055869;28;20099;-65
2022/04/26 08:31:01;;;;;;;3.72;1.00;;;12.00;93.60;;;;;;5059866;28;20506;-64
2022/04/26 08:33:29;;;;;;;2.08;1.00;;;12.10;92.40;;;;;;5075478;28;20029;-66
2022/04/26 08:35:56;;;;;;;2.15;0.93;;;12.30;93.10;;;;;;5060503;28;20098;-65
2022/04/26 08:38:22;;;;;;;1.42;1.00;;;12.50;92.40;;;;;;5074054;28;20044;-67
2022/04/26 08:40:48;;;;;;;3.40;1.40;;;12.60;91.90;;;;;;5065955;28;20039;-66
2022/04/26 08:43:14;;;;;;;4.13;0.93;;;12.60;91.30;;;;;;5069759;28;20138;-65
2022/04/26 08:45:40;;;;;;;1.90;0.90;;;12.60;90.30;;;;;;5064610;28;20583;-63
2022/04/26 08:51:00;;;;;;;1.83;1.00;;;12.80;91.70;;;;;;5054972;28;20056;-64
2022/04/26 08:53:27;;;;;;;2.38;1.02;;;13.00;90.50;;;;;;5062040;28;20128;-64
2022/04/26 08:55:57;;;;;;;11.18;1.63;;;13.10;90.50;;;;;;5063981;28;20043;-63
2022/04/26 08:58:25;;;;;;;2.72;1.05;;;13.20;89.20;;;;;;5067970;28;20123;-65
2022/04/26 09:01:09;;;;;;;1.13;1.00;;;13.30;88.30;;;;;;5070926;28;20048;-62
2022/04/26 09:03:37;;;;;;;2.58;0.65;;;13.50;90.10;;;;;;5056439;28;20032;-68
2022/04/26 09:06:08;;;;;;;1.20;0.68;;;13.60;87.20;;;;;;5074737;28;20115;-62
2022/04/26 09:08:38;;;;;;;3.28;0.85;;;13.60;90.10;;;;;;5074820;28;20032;-63
2022/04/26 09:11:18;;;;;;;2.05;1.10;;;13.80;89.40;;;;;;5074659;28;20036;-64
2022/04/26 09:13:44;;;;;;;2.28;1.00;;;14.10;90.70;;;;;;5074316;28;20033;-62
2022/04/26 09:16:16;;;;;;;3.03;0.98;;;14.40;88.40;;;;;;5074641;28;20046;-65
2022/04/26 09:18:56;;;;;;;1.15;0.93;;;14.70;90.00;;;;;;5074490;28;20400;-64
2022/04/26 09:21:26;;;;;;;1.52;0.93;;;15.00;88.10;;;;;;5074377;28;20067;-66
2022/04/26 09:23:57;;;;;;;1.45;1.00;;;15.00;85.60;;;;;;5073317;28;20079;-64
2022/04/26 09:26:23;;;;;;;1.80;0.80;;;14.40;83.90;;;;;;5074384;28;20036;-64
2022/04/26 09:28:51;;;;;;;4.43;1.33;;;14.10;86.90;;;;;;5074891;28;20362;-64
2022/04/26 09:31:37;;;;;;;1.48;0.88;;;14.10;89.40;;;;;;5069348;28;20393;-76
2022/04/26 09:34:09;;;;;;;1.55;0.95;;;14.40;86.80;;;;;;5074076;28;20105;-75
2022/04/26 09:36:50;;;;;;;1.52;0.70;;;14.50;86.00;;;;;;5056402;28;20033;-76
2022/04/26 09:39:21;;;;;;;5.07;1.15;;;15.20;83.80;;;;;;5074257;28;20397;-73
2022/04/26 09:41:51;;;;;;;2.22;0.80;;;15.50;82.70;;;;;;5055245;28;20032;-69
2022/04/26 09:44:17;;;;;;;1.40;0.50;;;15.90;79.40;;;;;;5058429;28;20032;-73
2022/04/26 09:46:43;;;;;;;2.03;1.00;;;16.20;75.00;;;;;;5069930;28;20032;-69
2022/04/26 09:49:10;;;;;;;1.70;0.80;;;16.50;74.00;;;;;;5070690;28;20674;-69
2022/04/26 09:51:37;;;;;;;0.52;0.50;;;16.70;67.40;;;;;;5054082;28;20115;-68
2022/04/26 09:54:03;;;;;;;1.77;0.70;;;17.10;68.30;;;;;;5063776;28;20044;-71
2022/04/26 09:56:31;;;;;;;1.60;0.60;;;17.40;65.80;;;;;;5070717;28;20052;-70
2022/04/26 09:58:57;;;;;;;;;;;18.10;65.80;;;;;;5065877;28;20041;-71
2022/04/26 10:01:32;;;;;;;1.63;0.70;;;18.30;62.70;;;;;;5067634;28;19913;-70
2022/04/26 10:04:04;;;;;;;1.27;0.60;;;18.80;57.90;;;;;;5053792;28;20033;-70
2022/04/26 10:06:38;;;;;;;1.02;0.60;;;19.00;55.70;;;;;;5049952;28;20116;-69
2022/04/26 10:09:05;;;;;;;2.92;0.63;;;19.10;55.30;;;;;;5072920;28;20033;-63
2022/04/26 10:11:32;;;;;;;0.88;0.50;;;18.90;52.50;;;;;;5071103;28;20391;-63
2022/04/26 10:14:01;;;;;;;0.80;0.50;;;18.60;53.60;;;;;;5064783;28;20040;-62
2022/04/26 10:16:27;;;;;;;2.92;0.85;;;18.90;53.70;;;;;;5059985;28;20035;-64
2022/04/26 10:19:06;;;;;;;2.45;0.70;;;19.10;54.20;;;;;;5054118;28;20068;-63
2022/04/26 10:21:40;;;;;;;1.13;0.68;;;19.60;53.20;;;;;;5061739;28;20041;-62
2022/04/26 10:24:23;;;;;;;1.33;0.80;;;19.80;50.60;;;;;;5062497;28;20032;-69
2022/04/26 10:26:51;;;;;;;1.60;0.70;;;19.80;50.00;;;;;;5058724;28;20489;-63
2022/04/26 10:29:17;;;;;;;0.45;0.40;;;19.60;46.80;;;;;;5052796;28;20562;-69
2022/04/26 10:31:55;;;;;;;1.55;0.65;;;19.90;48.90;;;;;;5058669;28;20449;-63
2022/04/26 10:34:23;;;;;;;0.88;0.50;;;20.50;47.50;;;;;;5057577;28;20171;-64
2022/04/26 10:36:50;;;;;;;2.35;0.70;;;20.90;48.90;;;;;;5062742;28;20032;-64
2022/04/26 10:39:23;;;;;;;1.42;0.65;;;20.40;44.30;;;;;;5057346;28;20048;-66
2022/04/26 10:41:49;;;;;;;1.17;0.60;;;20.30;45.20;;;;;;5057876;28;20036;-64
2022/04/26 10:44:17;;;;;;;1.40;0.50;;;20.80;44.40;;;;;;5063005;28;20044;-64
2022/04/26 10:47:02;;;;;;;0.60;0.52;;;21.50;43.20;;;;;;5072053;28;20060;-63
2022/04/26 10:49:40;;;;;;;1.08;0.60;;;21.40;39.20;;;;;;5073046;28;20035;-72
2022/04/26 10:52:14;;;;;;;0.57;0.57;;;21.60;40.30;;;;;;5068406;28;20495;-67
2022/04/26 10:54:49;;;;;;;0.47;0.43;;;22.20;39.90;;;;;;5061396;28;20052;-66
2022/04/26 10:57:17;;;;;;;0.95;0.50;;;22.40;38.10;;;;;;5059993;28;20041;-69
2022/04/26 10:59:47;;;;;;;0.80;0.50;;;22.00;36.70;;;;;;5061964;28;20075;-67
2022/04/26 11:02:17;;;;;;;1.02;0.50;;;22.00;37.10;;;;;;5060925;28;20139;-67
2022/04/26 11:04:43;;;;;;;0.55;0.40;;;22.00;37.30;;;;;;5038383;28;20081;-67
2022/04/26 11:07:17;;;;;;;1.95;0.40;;;22.00;38.00;;;;;;5063140;28;20036;-67
2022/04/26 11:09:51;;;;;;;0.40;0.40;;;22.40;37.60;;;;;;5060052;28;20049;-66
2022/04/26 11:12:20;;;;;;;3.38;0.60;;;22.40;36.60;;;;;;5052592;28;20025;-68
2022/04/26 11:14:47;;;;;;;0.85;0.40;;;22.10;36.20;;;;;;5060315;28;20028;-69
2022/04/26 11:17:17;;;;;;;3.78;0.52;;;22.40;35.80;;;;;;5056321;28;20051;-68
2022/04/26 11:19:58;;;;;;;1.40;0.40;;;22.20;34.80;;;;;;5052681;28;20397;-69
2022/04/26 11:22:25;;;;;;;1.23;0.57;;;22.00;38.20;;;;;;5061547;28;20036;-68
2022/04/26 11:27:59;;;;;;;1.23;0.50;;;21.70;36.10;;;;;;5069480;28;19966;-69
2022/04/26 11:30:46;;;;;;;0.68;0.50;;;21.30;39.20;;;;;;5071937;28;20457;-68
2022/04/26 11:33:19;;;;;;;0.93;0.65;;;21.10;37.00;;;;;;5061485;28;20071;-64
2022/04/26 11:35:50;;;;;;;0.73;0.60;;;21.60;37.10;;;;;;5060017;28;20515;-67
2022/04/26 11:38:17;;;;;;;0.45;0.45;;;20.60;36.10;;;;;;5067825;28;20037;-68
2022/04/26 11:40:51;;;;;;;0.60;0.50;;;20.00;39.30;;;;;;5072335;28;20040;-68
2022/04/26 11:43:23;;;;;;;0.63;0.50;;;20.10;39.90;;;;;;5072141;28;20029;-67
2022/04/26 11:45:54;;;;;;;1.65;0.50;;;20.30;40.10;;;;;;5046927;28;20036;-69
2022/04/26 11:48:22;;;;;;;0.88;0.32;;;20.50;39.10;;;;;;5052266;28;20037;-67
2022/04/26 11:50:50;;;;;;;0.75;0.70;;;21.00;40.60;;;;;;5067456;28;20082;-65
2022/04/26 11:53:24;;;;;;;1.10;0.73;;;21.60;37.10;;;;;;5054852;28;20070;-68
2022/04/26 11:55:56;;;;;;;1.13;0.52;;;22.00;36.70;;;;;;5050000;28;20153;-64
2022/04/26 11:58:34;;;;;;;2.47;0.60;;;21.20;39.20;;;;;;5066940;28;20440;-64
2022/04/26 12:01:10;;;;;;;0.77;0.50;;;20.30;38.70;;;;;;5072103;28;20051;-66
2022/04/26 12:03:45;;;;;;;1.58;0.63;;;19.40;39.20;;;;;;5071114;28;20066;-71
2022/04/26 12:06:13;;;;;;;2.13;0.55;;;19.10;41.50;;;;;;5060443;28;20068;-65
2022/04/26 12:08:49;;;;;;;1.40;0.65;;;19.30;43.90;;;;;;5069866;28;20059;-66
2022/04/26 12:11:23;;;;;;;0.55;0.55;;;19.40;40.90;;;;;;5052045;28;20513;-66
2022/04/26 12:14:03;;;;;;;0.75;0.50;;;20.20;40.60;;;;;;5070009;28;20123;-67
2022/04/26 12:16:31;;;;;;;1.02;0.60;;;21.80;41.50;;;;;;5070567;28;20033;-68
2022/04/26 12:19:00;;;;;;;0.52;0.52;;;22.10;38.90;;;;;;5071791;28;20032;-68
2022/04/26 12:21:27;;;;;;;0.60;0.50;;;22.90;38.40;;;;;;5072094;28;20558;-68
2022/04/26 12:24:12;;;;;;;0.63;0.50;;;22.40;37.30;;;;;;5052282;28;20377;-67
2022/04/26 12:26:57;;;;;;;0.50;0.45;;;23.50;36.80;;;;;;5052539;28;20515;-68
2022/04/26 12:29:41;;;;;;;0.32;0.30;;;24.40;34.90;;;;;;5059267;28;20039;-67
2022/04/26 12:32:14;;;;;;;1.58;0.50;;;25.50;34.40;;;;;;5067501;28;20029;-69
2022/04/26 12:34:54;;;;;;;1.15;0.63;;;26.40;33.90;;;;;;5060134;28;20060;-69
2022/04/26 12:37:29;;;;;;;0.65;0.52;;;26.70;34.60;;;;;;5071833;28;20475;-68
2022/04/26 12:39:58;;;;;;;1.45;0.60;;;26.50;33.20;;;;;;5064678;28;20491;-67
2022/04/26 12:42:27;;;;;;;2.45;0.73;;;26.60;32.30;;;;;;5075165;28;20527;-66
2022/04/26 12:44:55;;;;;;;1.23;0.70;;;25.00;33.60;;;;;;5072464;28;20025;-68
2022/04/26 12:52:52;;;;;;;2.70;0.95;;;24.90;36.20;;;;;;5075150;28;20047;-68
2022/04/26 12:55:34;;;;;;;1.10;0.73;;;23.40;39.30;;;;;;5075132;28;20040;-67
2022/04/26 12:58:10;;;;;;;1.00;0.60;;;24.30;36.50;;;;;;5068389;28;20041;-69
2022/04/26 13:00:41;;;;;;;1.85;0.50;;;25.20;34.60;;;;;;5056830;28;20130;-66
2022/04/26 13:03:08;;;;;;;3.88;1.00;;;24.80;32.20;;;;;;5068872;28;20416;-65
2022/04/26 13:05:39;;;;;;;1.85;1.00;;;22.80;35.40;;;;;;5074881;28;20491;-66
2022/04/26 13:08:05;;;;;;;3.10;1.20;;;21.60;39.80;;;;;;5075287;28;20082;-71
2022/04/26 13:10:31;;;;;;;3.15;1.05;;;20.60;42.40;;;;;;5074964;28;20047;-67
2022/04/26 13:12:56;;;;;;;4.10;1.15;;;21.00;43.50;;;;;;5071086;28;20037;-67
2022/04/26 13:15:23;;;;;;;4.32;1.40;;;20.70;41.00;;;;;;5074766;28;20063;-62
2022/04/26 13:17:49;;;;;;;2.80;1.23;;;20.20;47.90;;;;;;5072737;28;20029;-64
2022/04/26 13:20:32;;;;;;;3.95;1.15;;;19.80;47.70;;;;;;5065120;28;20289;-64
2022/04/26 13:22:57;;;;;;;1.58;0.80;;;18.80;50.70;;;;;;5072250;28;20032;-67
2022/04/26 13:25:24;;;;;;;1.17;0.80;;;18.40;45.50;;;;;;5074624;28;20119;-68
2022/04/26 13:27:49;;;;;;;0.55;0.40;;;19.90;43.50;;;;;;5074511;28;20084;-68
2022/04/26 13:30:16;;;;;;;2.35;1.00;;;21.70;37.80;;;;;;5074325;28;20115;-68
2022/04/26 13:32:42;;;;;;;3.77;1.30;;;23.60;39.50;;;;;;5074768;28;20039;-69
2022/04/26 13:35:08;;;;;;;3.33;1.38;;;23.20;38.90;;;;;;5074034;28;20584;-67
2022/04/26 13:37:35;;;;;;;4.22;1.00;;;22.20;41.10;;;;;;5074406;28;20044;-68
2022/04/26 13:40:02;;;;;;;3.15;1.27;;;23.60;43.50;;;;;;5074268;28;20377;-68
2022/04/26 13:42:30;;;;;;;1.75;0.73;;;24.10;44.10;;;;;;5074158;28;20033;-67
2022/04/26 13:44:57;;;;;;;3.08;1.00;;;25.70;35.50;;;;;;5074155;28;20039;-68
2022/04/26 13:47:23;;;;;;;;;;;26.90;40.30;;;;;;5074480;28;20032;-66
2022/04/26 13:49:49;;;;;;;3.10;1.20;;;27.90;37.10;;;;;;5073991;28;19974;-65
2022/04/26 13:52:15;;;;;;;2.30;0.80;;;29.40;32.40;;;;;;5074038;28;20113;-70
2022/04/26 13:54:42;;;;;;;6.78;1.27;;;29.20;32.80;;;;;;5073945;28;20399;-69
2022/04/26 13:57:09;;;;;;;5.85;1.40;;;28.10;35.60;;;;;;5074017;28;20049;-70
2022/04/26 13:59:36;;;;;;;4.60;1.55;;;28.70;35.50;;;;;;5073888;28;20041;-71
2022/04/26 14:02:03;;;;;;;2.05;0.93;;;30.10;34.40;;;;;;5073615;28;20040;-67
2022/04/26 14:04:29;;;;;;;5.25;0.82;;;30.10;32.10;;;;;;5073761;28;20075;-67
2022/04/26 14:06:55;;;;;;;1.50;0.90;;;29.80;32.20;;;;;;5073829;28;20056;-67
2022/04/26 14:09:23;;;;;;;1.53;0.60;;;30.00;30.90;;;;;;5073515;28;20036;-67
2022/04/26 14:11:51;;;;;;;1.75;0.93;;;29.10;29.00;;;;;;5074067;28;20060;-66
2022/04/26 14:22:32;;;;;;;2.63;0.93;;;28.80;32.50;;;;;;5073474;28;20086;-68
2022/04/26 14:25:08;;;;;;;3.55;1.33;;;28.40;34.30;;;;;;5073179;28;20029;-67
2022/04/26 14:27:35;;;;;;;3.92;1.27;;;28.50;32.80;;;;;;5073322;28;20040;-66
2022/04/26 14:30:02;;;;;;;3.22;1.30;;;28.40;32.40;;;;;;5073418;28;20076;-67
2022/04/26 14:32:28;;;;;;;4.30;1.50;;;26.40;34.50;;;;;;5073144;28;20028;-67
2022/04/26 14:34:53;;;;;;;0.75;0.65;;;27.70;34.40;;;;;;5073025;28;20111;-67
2022/04/26 14:37:19;;;;;;;1.90;0.77;;;29.10;29.80;;;;;;5072898;28;20032;-67
2022/04/26 14:39:45;;;;;;;1.30;0.50;;;29.80;31.10;;;;;;5072946;28;20494;-68
2022/04/26 14:42:11;;;;;;;0.30;0.30;;;30.80;28.50;;;;;;5072936;28;20108;-67
2022/04/26 14:44:37;;;;;;;1.92;0.75;;;30.70;27.10;;;;;;5073091;28;20040;-67
2022/04/26 14:47:03;;;;;;;2.30;1.00;;;30.30;28.10;;;;;;5054995;28;20060;-68
2022/04/26 14:49:33;;;;;;;2.40;1.10;;;29.10;28.70;;;;;;5054783;28;20033;-66
2022/04/26 14:51:59;;;;;;;2.78;1.27;;;27.20;32.00;;;;;;5072514;28;20034;-70
2022/04/26 14:54:25;;;;;;;2.97;1.27;;;27.00;34.50;;;;;;5072432;28;20401;-69
2022/04/26 14:56:51;;;;;;;1.15;0.40;;;25.50;33.80;;;;;;5072293;28;20048;-69
2022/04/26 14:59:22;;;;;;;2.38;1.20;;;26.80;30.10;;;;;;5072418;28;20516;-70
2022/04/26 15:01:49;;;;;;;2.67;1.60;;;24.10;32.40;;;;;;5072731;28;20063;-68
2022/04/26 15:04:19;;;;;;;3.88;1.25;;;23.70;32.90;;;;;;5072542;28;20386;-68
2022/04/26 15:06:46;;;;;;;2.05;1.20;;;22.80;34.60;;;;;;5072616;28;20100;-69
2022/04/26 15:17:25;;;;;;;2.60;0.98;;;22.80;34.70;;;;;;5072765;28;20421;-69
2022/04/26 15:19:51;;;;;;;1.38;1.08;;;23.30;35.90;;;;;;5072634;28;20028;-70
2022/04/26 15:22:19;;;;;;;4.00;2.25;;;25.40;33.80;;;;;;5072330;28;20396;-71
2022/04/26 15:24:47;;;;;;;;;;;24.70;30.60;;;;;;5072942;28;20162;-72
2022/04/26 15:27:15;;;;;;;1.10;0.85;;;25.40;31.80;;;;;;5072366;28;19912;-69
2022/04/26 15:29:40;;;;;;;;;;;26.40;32.20;;;;;;5072641;28;20488;-70
2022/04/26 15:32:07;;;;;;;0.88;0.77;;;26.20;31.60;;;;;;5072810;28;19983;-70
2022/04/26 15:34:32;;;;;;;2.03;1.00;;;25.70;31.60;;;;;;5054332;28;20492;-71
2022/04/26 15:36:58;;;;;;;3.83;1.15;;;23.60;33.30;;;;;;5072369;28;20035;-72
2022/04/26 15:39:25;;;;;;;1.50;1.10;;;25.60;33.90;;;;;;5072600;28;20079;-71
2022/04/26 15:41:51;;;;;;;4.25;1.38;;;26.00;32.70;;;;;;5072252;28;20566;-69
2022/04/26 15:44:17;;;;;;;2.67;1.40;;;22.60;35.10;;;;;;5072023;28;20025;-70
2022/04/26 15:46:43;;;;;;;3.33;1.15;;;21.70;37.40;;;;;;5072486;28;20446;-70
2022/04/26 15:49:12;;;;;;;2.10;1.33;;;20.90;38.70;;;;;;5054404;28;20039;-69
2022/04/26 15:51:38;;;;;;;2.85;1.17;;;20.50;40.40;;;;;;5072201;28;20032;-70
2022/04/26 15:54:05;;;;;;;4.00;1.73;;;21.80;38.70;;;;;;5072258;28;20035;-70
2022/04/26 15:56:32;;;;;;;1.38;0.93;;;21.00;38.90;;;;;;5054245;28;20048;-70
2022/04/26 15:58:58;;;;;;;2.40;1.15;;;21.70;37.20;;;;;;5071749;28;20467;-70
2022/04/26 16:01:26;;;;;;;2.17;1.10;;;20.80;37.60;;;;;;5072027;28;20467;-70
2022/04/26 16:03:52;;;;;;;1.95;1.13;;;21.10;37.50;;;;;;5049704;28;20123;-69
2022/04/26 16:06:18;;;;;;;1.42;1.00;;;21.10;38.00;;;;;;5067176;28;20148;-67
2022/04/26 16:08:44;;;;;;;1.80;1.10;;;20.50;37.60;;;;;;5073478;28;20107;-69
2022/04/26 16:22:06;;;;;;;2.83;1.80;;;21.80;36.30;;;;;;5075989;28;20531;-72
2022/04/26 16:24:38;;;;;;;2.20;1.35;;;22.40;35.90;;;;;;5075673;28;20059;-68
2022/04/26 16:27:08;;;;;;;4.20;1.10;;;21.80;36.00;;;;;;5076038;28;20036;-69
2022/04/26 16:29:34;;;;;;;4.60;1.20;;;20.40;36.80;;;;;;5075675;28;20031;-68
2022/04/26 16:32:00;;;;;;;3.72;1.30;;;20.50;38.40;;;;;;5075533;28;20029;-68
2022/04/26 16:34:27;;;;;;;2.83;1.33;;;20.00;37.90;;;;;;5075390;28;20079;-70
2022/04/26 16:36:54;;;;;;;1.20;0.93;;;19.00;38.70;;;;;;5075443;28;20479;-64
2022/04/26 16:39:19;;;;;;;1.23;1.00;;;19.60;38.20;;;;;;5075484;28;20040;-66
2022/04/26 16:41:45;;;;;;;1.33;0.98;;;19.30;38.20;;;;;;5075470;28;20032;-66
2022/04/26 16:44:11;;;;;;;1.55;0.90;;;19.50;37.50;;;;;;5075088;28;20044;-66
2022/04/26 16:46:37;;;;;;;1.77;1.15;;;20.70;37.60;;;;;;5074418;28;20021;-66
2022/04/26 16:49:03;;;;;;;3.80;0.85;;;20.40;36.50;;;;;;5074694;28;20079;-66
2022/04/26 16:51:30;;;;;;;1.70;1.08;;;21.20;37.30;;;;;;5074987;28;20090;-66
2022/04/26 16:53:56;;;;;;;2.80;1.17;;;19.50;36.30;;;;;;5075214;28;20090;-61
2022/04/26 16:56:22;;;;;;;1.67;0.90;;;18.10;39.20;;;;;;5075170;28;20265;-62
2022/04/26 16:58:48;;;;;;;3.00;1.10;;;18.40;39.80;;;;;;5075095;28;20501;-64
2022/04/26 17:01:13;;;;;;;3.70;1.10;;;17.90;40.80;;;;;;5074804;28;20489;-60
2022/04/26 17:03:39;;;;;;;1.77;1.10;;;16.60;42.30;;;;;;5075161;28;20468;-60
2022/04/26 17:06:05;;;;;;;1.30;1.00;;;15.90;45.20;;;;;;5075279;28;20029;-60
2022/04/26 17:08:31;;;;;;;4.35;1.10;;;14.90;46.50;;;;;;5074927;28;20068;-60
2022/04/26 17:11:41;;;;;;;2.22;1.00;;;14.60;48.60;;;;;;5074930;28;20037;-60
2022/04/26 17:13:43;;;;;;;2.17;1.05;;;14.20;50.90;;;;;;5074010;28;20075;-60
2022/04/26 17:16:12;;;;;;;1.60;1.15;;;13.90;53.00;;;;;;5060783;28;20112;-61